Flight Track Log - Related Links

Times and Time Zones

All times are in EDT time to prevent confusion due to time zone crossing. See the UAL582 flight status page for this flight to view local times or setup timezone preferences in your user account.


Time Position Orientation Groundspeed Altitude Reporting Facility
EDT Latitude Longitude Course Direction KTS MPH feet Rate Location/Type
Wed 05:07:20 PM 43.6833 -79.5667 47° Northeast 120 138 2,000  Level Toronto Center
Wed 05:08:20 PM 43.7167 -79.5167 47° Northeast 200 230 4,000 2,350 Climbing Toronto Center
Wed 05:09:20 PM 43.7667 -79.5667 324° Northwest 240 276 6,700 1,500 Climbing Toronto Center
Wed 05:10:20 PM 43.8333 -79.6333 324° Northwest 280 322 7,000 1,250 Climbing Toronto Center
Wed 05:11:20 PM 43.8500 -79.7333 283° West 280 322 9,200 2,500 Climbing Toronto Center
Wed 05:12:20 PM 43.8333 -79.8667 260° West 330 380 12,000 2,950 Climbing Toronto Center
Wed 05:13:20 PM 43.8167 -79.9833 259° West 350 403 15,100 2,950 Climbing Toronto Center
Wed 05:14:20 PM 43.8000 -80.1167 260° West 360 414 17,900 2,750 Climbing Toronto Center
Wed 05:15:20 PM 43.7667 -80.2833 255° West 380 437 20,600 2,400 Climbing Toronto Center
Wed 05:16:20 PM 43.7667 -80.4167 270° West 400 460 22,700 2,050 Climbing Toronto Center
Wed 05:17:20 PM 43.7500 -80.5833 262° West 420 483 24,700 1,950 Climbing Toronto Center
Wed 05:18:20 PM 43.7500 -80.7333 270° West 430 495 26,600 1,750 Climbing Toronto Center
Wed 05:19:20 PM 43.7000 -80.9000 248° West 430 495 28,200 1,550 Climbing Toronto Center
Wed 05:20:20 PM 43.6667 -81.0833 256° West 440 506 29,700 1,450 Climbing Toronto Center
Wed 05:21:20 PM 43.6333 -81.2167 251° West 450 518 31,100 1,450 Climbing Toronto Center
Wed 05:22:20 PM 43.5833 -81.4000 249° West 460 529 32,600 1,550 Climbing Toronto Center
Wed 05:23:20 PM 43.5500 -81.5667 255° West 460 529 34,200 1,850 Climbing Toronto Center
Wed 05:24:20 PM 43.5000 -81.7167 245° Southwest 440 506 36,300 1,500 Climbing Toronto Center
Wed 05:25:20 PM 43.4667 -81.8833 255° West 430 495 37,200 850 Climbing Toronto Center
Wed 05:26:20 PM 43.4167 -82.0500 248° West 430 495 38,000 495 Climbing Toronto Center
Wed 05:26:57 PM 43.4081 -82.1492 263° West 441 507 38,000  Level Cleveland Center
Wed 05:27:57 PM 43.3642 -82.3108 250° West 446 513 38,000  Level Cleveland Center
Wed 05:28:20 PM 43.3333 -82.3667 233° Southwest 460 529 38,000  Level Toronto Center
Wed 05:29:20 PM 43.3000 -82.5167 253° West 460 529 38,000  Level Toronto Center
Wed 05:29:57 PM 43.2756 -82.6419 255° West 456 525 38,000  Level Cleveland Center
Wed 05:30:57 PM 43.2328 -82.8114 251° West 467 537 38,000  Level Cleveland Center
Wed 05:31:57 PM 43.1981 -82.9783 254° West 467 537 38,000  Level Cleveland Center
Wed 05:32:57 PM 43.1675 -83.1422 256° West 453 521 38,000  Level Cleveland Center
Wed 05:33:57 PM 43.1367 -83.3089 256° West 453 521 38,000  Level Cleveland Center
Wed 05:34:57 PM 43.1033 -83.4750 255° West 453 521 38,000 50 Level Cleveland Center
Wed 05:35:57 PM 43.0697 -83.6469 255° West 453 521 38,100  Climbing Cleveland Center
Wed 05:36:57 PM 43.0383 -83.8103 255° West 453 521 38,000 -69 Descending Cleveland Center
Wed 05:38:52 PM 42.9808 -84.1039 255° West 449 517 37,900 -587 Descending Chicago Center
Wed 05:39:20 PM 42.9500 -84.1833 242° Southwest 450 518 36,600 -2,864 Descending Toronto Center
Wed 05:40:20 PM 42.9167 -84.3667 256° West 450 518 33,700 -2,563 Descending Toronto Center
Wed 05:40:56 PM 42.9150 -84.4322 268° West 450 518 32,500 -1,041 Descending Chicago Center
Wed 05:41:58 PM 42.8819 -84.6036 255° West 464 534 32,000 -242 Descending Chicago Center
Wed 05:43:00 PM 42.8600 -84.8108 262° West 462 532 32,000 -97 Level Chicago Center
Wed 05:44:02 PM 42.8417 -84.9839 262° West 462 532 31,800 -581 Descending Chicago Center
Wed 05:45:04 PM 42.8247 -85.1547 262° West 457 526 30,800 -871 Descending Chicago Center
Wed 05:46:06 PM 42.8050 -85.3308 261° West 467 537 30,000 -387 Descending Chicago Center
Wed 05:47:08 PM 42.7850 -85.5050 261° West 465 535 30,000 -48 Level Chicago Center
Wed 05:48:10 PM 42.7536 -85.6758 256° West 462 532 29,900 -919 Descending Chicago Center
Wed 05:49:12 PM 42.7169 -85.8808 256° West 462 532 28,100 -2,208 Descending Chicago Center
Wed 05:50:15 PM 42.6878 -86.0436 256° West 444 511 25,300 -2,880 Descending Chicago Center
Wed 05:51:17 PM 42.6578 -86.2033 256° West 436 502 22,100 -2,613 Descending Chicago Center
Wed 05:52:19 PM 42.6283 -86.3586 256° West 427 491 19,900 -1,548 Descending Chicago Center
Wed 05:53:21 PM 42.5997 -86.5103 256° West 415 478 18,900 -1,597 Descending Chicago Center
Wed 05:54:23 PM 42.5719 -86.6578 256° West 405 466 16,600 -1,984 Descending Chicago Center
Wed 05:55:25 PM 42.5419 -86.7978 254° West 393 452 14,800 -1,935 Descending Chicago Center
Wed 05:56:27 PM 42.4975 -86.9581 249° West 381 438 12,600 -1,984 Descending Chicago Center
Wed 05:57:29 PM 42.4608 -87.0864 249° West 367 422 10,700 -1,306 Descending Chicago Center
Wed 05:58:31 PM 42.4283 -87.2039 249° West 340 391 9,900 -871 Descending Chicago Center
Wed 05:59:33 PM 42.4019 -87.3039 250° West 292 336 8,900 -871 Descending Chicago Center
Wed 06:00:35 PM 42.3650 -87.4014 243° Southwest 280 322 8,100 -912 Descending Chicago Center
Wed 06:01:38 PM 42.3164 -87.4944 235° Southwest 278 320 7,000 -576 Descending Chicago Center
Wed 06:02:40 PM 42.2681 -87.5850 234° Southwest 272 313 6,900 -290 Descending Chicago Center
Wed 06:03:42 PM 42.2167 -87.6558 226° Southwest 269 310 6,400 -968 Descending Chicago Center
Wed 06:04:44 PM 42.1583 -87.7197 219° Southwest 272 313 4,900 -1,593 Descending Chicago Center
Wed 06:05:35 PM 42.1000 -87.7667 211° Southwest 246 283 3,400 -1,765 Descending Chicago TRACON

Login

Don't have an account? Register now (free) for customized features, flight alerts, and more!